Time,TemperatureF,DewpointF,PressureIn,WindDirection,WindDirectionDegrees,WindSpeedMPH,WindSpeedGustMPH,Humidity,HourlyPrecipIn,Conditions,Clouds,dailyrainin,SoftwareType,DateUTC
2013-06-20 00:02:00,76.8,72.7,30.03,North,352,0.0,1.0,87,0.00,,,0.04,meteohub,2013-06-20 05:02:00,
2013-06-20 00:17:00,76.5,72.7,30.03,North,352,0.0,1.0,88,0.00,,,0.00,meteohub,2013-06-20 05:17:00,
2013-06-20 00:32:00,76.3,72.5,30.02,North,352,0.0,1.0,88,0.00,,,0.00,meteohub,2013-06-20 05:32:00,
2013-06-20 00:47:00,76.1,72.3,30.02,North,352,0.0,2.0,88,0.00,,,0.00,meteohub,2013-06-20 05:47:00,
2013-06-20 01:17:00,76.3,71.8,30.01,North,352,0.0,0.0,86,0.00,,,0.00,meteohub,2013-06-20 06:17:00,
2013-06-20 01:32:00,76.5,72.0,30.01,North,352,0.0,1.0,86,0.00,,,0.00,meteohub,2013-06-20 06:32:00,
2013-06-20 01:47:00,76.1,72.0,30.01,North,352,0.0,2.0,87,0.00,,,0.00,meteohub,2013-06-20 06:47:00,
2013-06-20 02:02:00,75.7,72.0,30.00,North,352,0.0,1.0,88,0.00,,,0.00,meteohub,2013-06-20 07:02:00,
2013-06-20 02:17:00,75.9,72.1,30.00,North,352,0.0,1.0,88,0.00,,,0.00,meteohub,2013-06-20 07:17:00,
2013-06-20 02:32:00,75.9,72.1,30.00,North,352,0.0,2.0,88,0.00,,,0.00,meteohub,2013-06-20 07:32:00,
2013-06-20 02:47:00,75.7,72.0,30.00,North,352,0.0,2.0,88,0.00,,,0.00,meteohub,2013-06-20 07:47:00,
2013-06-20 03:02:00,75.6,71.8,30.01,North,352,0.0,1.0,88,0.00,,,0.00,meteohub,2013-06-20 08:02:00,
2013-06-20 03:17:00,75.4,72.0,30.01,North,352,2.0,2.0,89,0.00,,,0.00,meteohub,2013-06-20 08:17:00,
2013-06-20 03:32:00,75.6,72.5,30.01,North,352,0.0,3.0,90,0.00,,,0.00,meteohub,2013-06-20 08:32:00,
2013-06-20 03:47:00,75.6,72.5,30.01,North,352,0.0,1.0,90,0.00,,,0.00,meteohub,2013-06-20 08:47:00,
2013-06-20 04:02:00,75.0,72.0,30.02,North,352,0.0,1.0,90,0.00,,,0.00,meteohub,2013-06-20 09:02:00,
2013-06-20 04:17:00,74.8,72.0,30.01,North,352,0.0,1.0,91,0.00,,,0.00,meteohub,2013-06-20 09:17:00,
2013-06-20 04:32:00,74.7,71.8,30.02,North,352,0.0,2.0,91,0.00,,,0.00,meteohub,2013-06-20 09:32:00,
2013-06-20 04:47:00,74.1,71.2,30.02,North,352,0.0,1.0,91,0.00,,,0.00,meteohub,2013-06-20 09:47:00,
2013-06-20 05:02:00,73.9,71.1,30.02,North,352,0.0,2.0,91,0.00,,,0.00,meteohub,2013-06-20 10:02:00,
2013-06-20 05:17:00,73.8,71.2,30.02,North,352,0.0,0.0,92,0.00,,,0.00,meteohub,2013-06-20 10:17:00,
2013-06-20 05:32:00,73.8,71.6,30.03,North,352,0.0,1.0,93,0.00,,,0.00,meteohub,2013-06-20 10:32:00,
2013-06-20 05:47:00,73.9,71.8,30.03,North,352,0.0,1.0,93,0.00,,,0.00,meteohub,2013-06-20 10:47:00,
2013-06-20 06:02:00,74.5,72.3,30.03,North,352,0.0,1.0,93,0.00,,,0.00,meteohub,2013-06-20 11:02:00,
2013-06-20 06:17:00,75.0,73.2,30.04,North,352,0.0,0.0,94,0.00,,,0.00,meteohub,2013-06-20 11:17:00,
2013-06-20 06:32:00,75.4,73.2,30.05,North,352,0.0,0.0,93,0.00,,,0.00,meteohub,2013-06-20 11:32:00,
2013-06-20 06:47:00,75.9,73.8,30.05,North,352,0.0,0.0,93,0.00,,,0.00,meteohub,2013-06-20 11:47:00,
2013-06-20 07:02:00,76.6,74.1,30.05,North,352,0.0,0.0,92,0.00,,,0.00,meteohub,2013-06-20 12:02:00,
2013-06-20 07:17:00,76.8,73.9,30.06,North,352,0.0,1.0,91,0.00,,,0.00,meteohub,2013-06-20 12:17:00,
2013-06-20 07:32:00,77.5,74.3,30.06,North,352,0.0,0.0,90,0.00,,,0.00,meteohub,2013-06-20 12:32:00,
2013-06-20 07:47:00,78.4,75.2,30.07,North,352,1.0,0.0,90,0.00,,,0.00,meteohub,2013-06-20 12:47:00,
2013-06-20 08:02:00,79.0,74.8,30.08,NNW,327,0.0,7.0,87,0.00,,,0.00,meteohub,2013-06-20 13:02:00,
2013-06-20 08:17:00,79.5,74.3,30.08,NW,326,1.0,5.0,84,0.00,,,0.00,meteohub,2013-06-20 13:17:00,
2013-06-20 08:32:00,79.9,74.3,30.08,NW,323,4.0,8.0,83,0.00,,,0.00,meteohub,2013-06-20 13:32:00,
2013-06-20 08:47:00,80.1,74.8,30.09,NNW,327,7.0,8.0,84,0.00,,,0.00,meteohub,2013-06-20 13:47:00,
2013-06-20 09:02:00,80.4,74.1,30.09,NNW,327,7.0,10.0,81,0.00,,,0.00,meteohub,2013-06-20 14:02:00,
2013-06-20 09:17:00,80.8,73.9,30.09,NNW,329,7.0,10.0,80,0.00,,,0.00,meteohub,2013-06-20 14:17:00,
2013-06-20 09:32:00,81.0,74.1,30.09,NNW,333,5.0,9.0,80,0.00,,,0.00,meteohub,2013-06-20 14:32:00,
2013-06-20 09:47:00,81.0,74.1,30.09,NW,321,8.0,9.0,80,0.00,,,0.00,meteohub,2013-06-20 14:47:00,
2013-06-20 10:02:00,81.3,74.1,30.09,NW,321,7.0,10.0,79,0.00,,,0.00,meteohub,2013-06-20 15:02:00,
2013-06-20 10:17:00,81.5,74.3,30.09,NNW,328,10.0,10.0,79,0.00,,,0.00,meteohub,2013-06-20 15:17:00,
2013-06-20 10:32:00,81.9,74.3,30.09,NW,321,6.0,10.0,78,0.00,,,0.00,meteohub,2013-06-20 15:32:00,
2013-06-20 10:47:00,82.2,73.9,30.09,NW,323,5.0,9.0,76,0.00,,,0.00,meteohub,2013-06-20 15:47:00,
2013-06-20 11:02:00,82.6,73.4,30.09,NW,321,4.0,9.0,74,0.00,,,0.00,meteohub,2013-06-20 16:02:00,
2013-06-20 11:17:00,82.8,73.9,30.09,NW,325,7.0,7.0,75,0.00,,,0.00,meteohub,2013-06-20 16:17:00,
2013-06-20 11:32:00,82.9,74.7,30.09,NW,307,5.0,9.0,76,0.00,,,0.00,meteohub,2013-06-20 16:32:00,
2013-06-20 11:47:00,83.1,74.8,30.09,NW,309,3.0,7.0,76,0.00,,,0.00,meteohub,2013-06-20 16:47:00,
2013-06-20 12:02:00,83.8,74.7,30.08,WNW,297,3.0,6.0,74,0.00,,,0.00,meteohub,2013-06-20 17:02:00,
2013-06-20 12:17:00,84.2,73.8,30.08,NW,317,5.0,6.0,71,0.00,,,0.00,meteohub,2013-06-20 17:17:00,
2013-06-20 12:32:00,84.9,73.6,30.08,NW,310,3.0,7.0,69,0.00,,,0.00,meteohub,2013-06-20 17:32:00,
2013-06-20 12:47:00,85.5,73.2,30.07,NNW,327,7.0,9.0,67,0.00,,,0.00,meteohub,2013-06-20 17:47:00,
2013-06-20 13:02:00,85.8,73.9,30.06,NNW,333,4.0,10.0,68,0.00,,,0.00,meteohub,2013-06-20 18:02:00,
2013-06-20 13:17:00,86.7,73.6,30.06,NW,326,5.0,10.0,65,0.00,,,0.00,meteohub,2013-06-20 18:17:00,
2013-06-20 13:32:00,87.8,73.6,30.06,NNW,348,1.0,10.0,63,0.00,,,0.00,meteohub,2013-06-20 18:32:00,
2013-06-20 13:47:00,87.3,71.6,30.06,NNW,336,2.0,11.0,60,0.00,,,0.00,meteohub,2013-06-20 18:47:00,
2013-06-20 14:02:00,87.6,73.0,30.06,NW,325,8.0,14.0,62,0.00,,,0.00,meteohub,2013-06-20 19:02:00,
2013-06-20 14:17:00,88.3,72.1,30.05,NNW,343,2.0,15.0,59,0.00,,,0.00,meteohub,2013-06-20 19:17:00,
2013-06-20 14:32:00,88.3,70.7,30.04,NW,317,3.0,14.0,56,0.00,,,0.00,meteohub,2013-06-20 19:32:00,
2013-06-20 14:47:00,88.0,71.4,30.04,NNW,332,5.0,9.0,58,0.00,,,0.00,meteohub,2013-06-20 19:47:00,
2013-06-20 15:02:00,88.2,72.0,30.03,NW,325,7.0,9.0,59,0.00,,,0.00,meteohub,2013-06-20 20:02:00,
2013-06-20 15:17:00,88.7,71.1,30.03,NW,319,3.0,9.0,56,0.00,,,0.00,meteohub,2013-06-20 20:17:00,
2013-06-20 15:32:00,88.7,70.0,30.02,NW,312,4.0,8.0,54,0.00,,,0.00,meteohub,2013-06-20 20:32:00,
2013-06-20 15:47:00,89.1,70.2,30.02,NNW,333,4.0,10.0,54,0.00,,,0.00,meteohub,2013-06-20 20:47:00,
2013-06-20 16:02:00,89.2,70.9,30.03,NW,319,2.0,7.0,55,0.00,,,0.00,meteohub,2013-06-20 21:02:00,
2013-06-20 16:17:00,88.7,72.0,30.04,NW,310,0.0,3.0,58,0.00,,,0.00,meteohub,2013-06-20 21:17:00,
2013-06-20 16:32:00,88.2,72.0,30.04,NW,310,0.0,1.0,59,0.00,,,0.00,meteohub,2013-06-20 21:32:00,
2013-06-20 16:47:00,87.6,73.0,30.04,WSW,257,11.0,11.0,62,0.00,,,0.00,meteohub,2013-06-20 21:47:00,
2013-06-20 17:02:00,80.2,74.7,30.04,West,280,14.0,23.0,83,0.00,,,0.00,meteohub,2013-06-20 22:02:00,
2013-06-20 17:17:00,80.2,73.9,30.04,West,271,11.0,17.0,81,0.00,,,0.00,meteohub,2013-06-20 22:17:00,
2013-06-20 17:32:00,80.1,73.4,30.04,WSW,243,5.0,14.0,80,0.00,,,0.00,meteohub,2013-06-20 22:32:00,
2013-06-20 17:47:00,80.1,73.0,30.03,WSW,244,1.0,7.0,79,0.00,,,0.00,meteohub,2013-06-20 22:47:00,
2013-06-20 18:02:00,80.2,72.7,30.03,SW,234,0.0,4.0,78,0.00,,,0.00,meteohub,2013-06-20 23:02:00,
2013-06-20 18:17:00,80.4,72.9,30.03,SW,234,0.0,2.0,78,0.00,,,0.00,meteohub,2013-06-20 23:17:00,
2013-06-20 18:32:00,80.8,73.6,30.02,SW,233,0.0,2.0,79,0.00,,,0.00,meteohub,2013-06-20 23:32:00,
2013-06-20 18:47:00,81.1,73.9,30.02,SW,234,1.0,1.0,79,0.00,,,0.00,meteohub,2013-06-20 23:47:00,
2013-06-20 19:02:00,81.0,73.8,30.03,SW,233,0.0,1.0,79,0.00,,,0.00,meteohub,2013-06-21 00:02:00,
2013-06-20 19:17:00,80.8,73.6,30.04,SW,234,0.0,1.0,79,0.00,,,0.00,meteohub,2013-06-21 00:17:00,
2013-06-20 19:32:00,81.7,74.5,30.04,SW,229,3.0,6.0,79,0.00,,,0.00,meteohub,2013-06-21 00:32:00,
2013-06-20 19:47:00,82.2,74.7,30.04,SW,234,4.0,7.0,78,0.00,,,0.00,meteohub,2013-06-21 00:47:00,
2013-06-20 20:02:00,82.0,73.8,30.04,SW,234,3.0,7.0,76,0.00,,,0.00,meteohub,2013-06-21 01:02:00,
2013-06-20 20:17:00,82.0,73.8,30.05,WSW,250,3.0,5.0,76,0.00,,,0.00,meteohub,2013-06-21 01:17:00,
2013-06-20 20:32:00,82.0,74.1,30.05,WSW,251,2.0,6.0,77,0.00,,,0.00,meteohub,2013-06-21 01:32:00,
2013-06-20 20:47:00,82.2,74.7,30.05,WSW,257,4.0,6.0,78,0.00,,,0.00,meteohub,2013-06-21 01:47:00,
2013-06-20 21:02:00,82.0,74.5,30.06,West,261,4.0,7.0,78,0.00,,,0.00,meteohub,2013-06-21 02:02:00,
2013-06-20 21:17:00,81.9,73.6,30.06,West,266,4.0,5.0,76,0.00,,,0.00,meteohub,2013-06-21 02:17:00,
2013-06-20 21:32:00,82.2,73.9,30.06,West,276,0.0,5.0,76,0.00,,,0.00,meteohub,2013-06-21 02:32:00,
2013-06-20 21:47:00,80.4,73.2,30.07,West,276,0.0,3.0,79,0.00,,,0.00,meteohub,2013-06-21 02:47:00,
2013-06-20 22:02:00,79.3,73.4,30.08,West,276,0.0,2.0,82,0.00,,,0.00,meteohub,2013-06-21 03:02:00,
2013-06-20 22:17:00,78.6,73.4,30.08,West,276,0.0,1.0,84,0.00,,,0.00,meteohub,2013-06-21 03:17:00,
2013-06-20 22:32:00,78.3,73.4,30.08,West,276,0.0,0.0,85,0.00,,,0.00,meteohub,2013-06-21 03:32:00,
2013-06-20 22:47:00,78.1,73.2,30.08,WSW,251,0.0,2.0,85,0.00,,,0.00,meteohub,2013-06-21 03:47:00,
2013-06-20 23:02:00,77.7,72.9,30.08,WSW,250,0.0,2.0,85,0.00,,,0.00,meteohub,2013-06-21 04:02:00,
2013-06-20 23:17:00,77.5,72.7,30.07,WSW,250,0.0,0.0,85,0.00,,,0.00,meteohub,2013-06-21 04:17:00,
2013-06-20 23:32:00,77.2,72.7,30.07,WSW,250,0.0,0.0,86,0.00,,,0.00,meteohub,2013-06-21 04:32:00,
2013-06-20 23:47:00,76.8,72.0,30.06,WSW,250,0.0,1.0,85,0.00,,,0.00,meteohub,2013-06-21 04:47:00,